Time;durP1;ratioP1;P1;durP2;ratioP2;P2;SDS_P1;SDS_P2;PMS_P1;PMS_P2;Temp;Humidity;BMP_temperature;BMP_pressure;BME280_temperature;BME280_humidity;BME280_pressure;Samples;Min_cycle;Max_cycle;Signal;HPM_P1;HPM_P2
2024/01/05 00:00:31;;;;;;;;;;;-0.50;99.90;;;;;;5069597;28;20241;-84
2024/01/05 00:02:59;;;;;;;;;;;-0.60;99.90;;;;;;5070284;28;19912;-83
2024/01/05 00:05:25;;;;;;;;;;;-0.50;99.90;;;;;;5069648;28;19920;-83
2024/01/05 00:07:50;;;;;;;;;;;-0.60;99.90;;;;;;5068976;28;19960;-82
2024/01/05 00:10:16;;;;;;;;;;;-0.60;99.90;;;;;;5068611;28;19993;-83
2024/01/05 00:12:41;;;;;;;;;;;-0.60;99.90;;;;;;5052523;28;19904;-83
2024/01/05 00:15:07;;;;;;;;;;;-0.60;99.90;;;;;;5050419;28;19923;-83
2024/01/05 00:17:33;;;;;;;;;;;-0.60;99.90;;;;;;5069900;28;19983;-83
2024/01/05 00:19:58;;;;;;;;;;;-0.60;99.90;;;;;;5070785;28;19904;-83
2024/01/05 00:22:24;;;;;;;;;;;-0.60;99.90;;;;;;5052455;28;19908;-83
2024/01/05 00:24:49;;;;;;;;;;;-0.60;99.90;;;;;;5048913;28;20269;-83
2024/01/05 00:27:15;;;;;;;;;;;-0.60;99.90;;;;;;5069909;28;20477;-83
2024/01/05 00:29:40;;;;;;;;;;;-0.60;99.90;;;;;;5069988;28;20356;-83
2024/01/05 00:32:06;;;;;;;;;;;-0.60;99.90;;;;;;5070219;28;19948;-82
2024/01/05 00:34:32;;;;;;;;;;;-0.60;99.90;;;;;;5065055;28;19952;-83
2024/01/05 00:36:57;;;;;;;;;;;-0.50;99.90;;;;;;5051027;28;19916;-83
2024/01/05 00:39:23;;;;;;;;;;;-0.50;99.90;;;;;;5069575;28;19991;-83
2024/01/05 00:41:48;;;;;;;;;;;-0.50;99.90;;;;;;5069795;28;20004;-83
2024/01/05 00:44:14;;;;;;;;;;;-0.50;99.90;;;;;;5068286;28;19919;-83
2024/01/05 00:46:39;;;;;;;;;;;-0.50;99.90;;;;;;5050967;28;19908;-83
2024/01/05 00:49:05;;;;;;;;;;;-0.50;99.90;;;;;;5069530;28;19939;-83
2024/01/05 00:51:31;;;;;;;;;;;-0.50;99.90;;;;;;5047902;28;19942;-83
2024/01/05 00:53:56;;;;;;;;;;;-0.60;99.90;;;;;;5064652;28;19917;-83
2024/01/05 00:56:22;;;;;;;;;;;-0.50;99.90;;;;;;5066189;28;19966;-83
2024/01/05 00:58:47;;;;;;;;;;;-0.50;99.90;;;;;;5069952;28;20040;-83
2024/01/05 01:01:14;;;;;;;;;;;-0.50;99.90;;;;;;5068796;28;20319;-83
2024/01/05 01:03:39;;;;;;;;;;;-0.60;99.90;;;;;;5069351;28;19963;-83
2024/01/05 01:06:05;;;;;;;;;;;-0.60;99.90;;;;;;5069161;28;19996;-83
2024/01/05 01:08:30;;;;;;;;;;;-0.60;99.90;;;;;;5064007;28;20018;-83
2024/01/05 01:10:56;;;;;;;;;;;-0.50;99.90;;;;;;5069407;28;20031;-83
2024/01/05 01:13:21;;;;;;;;;;;-0.50;99.90;;;;;;5062607;28;19908;-83
2024/01/05 01:15:46;;;;;;;;;;;-0.50;99.90;;;;;;5050806;28;20319;-83
2024/01/05 01:18:12;;;;;;;;;;;-0.50;99.90;;;;;;5069112;28;20007;-83
2024/01/05 01:20:38;;;;;;;;;;;-0.50;99.90;;;;;;5051276;28;20003;-83
2024/01/05 01:23:04;;;;;;;;;;;-0.50;99.90;;;;;;5051226;28;20322;-83
2024/01/05 01:25:29;;;;;;;;;;;-0.50;99.90;;;;;;5056042;28;19916;-83
2024/01/05 01:27:54;;;;;;;;;;;-0.50;99.90;;;;;;5058397;28;19908;-83
2024/01/05 01:30:20;;;;;;;;;;;-0.50;99.90;;;;;;5068051;28;19939;-83
2024/01/05 01:32:45;;;;;;;;;;;-0.50;99.90;;;;;;5070100;28;19982;-83
2024/01/05 01:35:11;;;;;;;;;;;-0.50;99.90;;;;;;5051046;28;19909;-83
2024/01/05 01:37:36;;;;;;;;;;;-0.50;99.90;;;;;;5073554;28;19927;-83
2024/01/05 01:40:04;;;;;;;;;;;-0.50;99.90;;;;;;5072228;28;19909;-83
2024/01/05 01:42:30;;;;;;;;;;;-0.50;99.90;;;;;;5053287;28;19912;-81
2024/01/05 01:44:55;;;;;;;;;;;-0.60;99.90;;;;;;5072685;28;19916;-82
2024/01/05 01:47:21;;;;;;;;;;;-0.50;99.90;;;;;;5071647;28;19915;-83
2024/01/05 01:49:46;;;;;;;;;;;-0.60;99.90;;;;;;5072101;28;19917;-83
2024/01/05 01:52:12;;;;;;;;;;;-0.60;99.90;;;;;;5068534;28;19932;-83
2024/01/05 01:54:38;;;;;;;;;;;-0.60;99.90;;;;;;5071555;28;19963;-83
2024/01/05 01:57:04;;;;;;;;;;;-0.60;99.90;;;;;;5050143;28;19909;-83
2024/01/05 01:59:30;;;;;;;;;;;-0.60;99.90;;;;;;5047152;28;20316;-83
2024/01/05 02:01:56;;;;;;;;;;;-0.50;99.90;;;;;;5070927;28;19908;-83
2024/01/05 02:04:22;;;;;;;;;;;-0.60;99.90;;;;;;5053347;28;19913;-82
2024/01/05 02:06:47;;;;;;;;;;;-0.60;99.90;;;;;;5071632;28;20390;-82
2024/01/05 02:09:13;;;;;;;;;;;-0.60;99.90;;;;;;5072060;28;19920;-83
2024/01/05 02:11:41;;;;;;;;;;;-0.60;99.90;;;;;;5072470;28;19916;-83
2024/01/05 02:14:06;;;;;;;;;;;-0.70;99.90;;;;;;5070627;28;20005;-83
2024/01/05 02:16:32;;;;;;;;;;;-0.60;99.90;;;;;;5070578;28;21080;-83
2024/01/05 02:18:57;;;;;;;;;;;-0.70;99.90;;;;;;5071600;28;19912;-83
2024/01/05 02:21:24;;;;;;;;;;;-0.70;99.90;;;;;;5071575;28;19939;-83
2024/01/05 02:23:49;;;;;;;;;;;-0.70;99.90;;;;;;5071480;28;19919;-83
2024/01/05 02:26:15;;;;;;;;;;;-0.70;99.90;;;;;;5053661;28;19908;-83
2024/01/05 02:28:41;;;;;;;;;;;-0.70;99.90;;;;;;5072269;28;19975;-83
2024/01/05 02:31:06;;;;;;;;;;;-0.70;99.90;;;;;;5069594;28;20038;-83
2024/01/05 02:33:32;;;;;;;;;;;-0.60;99.90;;;;;;5072126;28;19955;-83
2024/01/05 02:35:57;;;;;;;;;;;-0.60;99.90;;;;;;5071795;28;20045;-82
2024/01/05 02:38:23;;;;;;;;;;;-0.60;99.90;;;;;;5071901;28;20006;-83
2024/01/05 02:40:48;;;;;;;;;;;-0.70;99.90;;;;;;5071584;28;19931;-83
2024/01/05 02:43:16;;;;;;;;;;;-0.70;99.90;;;;;;5071868;28;19950;-82
2024/01/05 02:45:42;;;;;;;;;;;-0.70;99.90;;;;;;5046029;28;19915;-83
2024/01/05 02:48:07;;;;;;;;;;;-0.70;99.90;;;;;;5052474;28;19916;-82
2024/01/05 02:50:33;;;;;;;;;;;-0.70;99.90;;;;;;5072805;28;19927;-83
2024/01/05 02:52:58;;;;;;;;;;;-0.60;99.90;;;;;;5071829;28;19913;-82
2024/01/05 02:55:24;;;;;;;;;;;-0.60;99.90;;;;;;5048976;28;19912;-83
2024/01/05 02:57:50;;;;;;;;;;;-0.60;99.90;;;;;;5071590;28;19915;-83
2024/01/05 03:00:15;;;;;;;;;;;-0.60;99.90;;;;;;5068547;28;19912;-83
2024/01/05 03:02:41;;;;;;;;;;;-0.70;99.90;;;;;;5064091;28;19955;-82
2024/01/05 03:05:06;;;;;;;;;;;-0.60;99.90;;;;;;5071109;28;19915;-83
2024/01/05 03:07:32;;;;;;;;;;;-0.60;99.90;;;;;;5053094;28;19916;-82
2024/01/05 03:09:57;;;;;;;;;;;-0.60;99.90;;;;;;5043154;28;19920;-82
2024/01/05 03:12:23;;;;;;;;;;;-0.60;99.90;;;;;;5071681;28;19908;-81
2024/01/05 03:14:48;;;;;;;;;;;-0.60;99.90;;;;;;5070661;28;19973;-82
2024/01/05 03:17:15;;;;;;;;;;;-0.60;99.90;;;;;;5070037;28;19913;-82
2024/01/05 03:19:40;;;;;;;;;;;-0.50;99.90;;;;;;5050961;28;20273;-82
2024/01/05 03:22:06;;;;;;;;;;;-0.50;99.90;;;;;;5051697;28;19934;-81
2024/01/05 03:24:31;;;;;;;;;;;-0.60;99.90;;;;;;5070295;28;19916;-82
2024/01/05 03:26:57;;;;;;;;;;;-0.60;99.90;;;;;;5053188;28;19942;-82
2024/01/05 03:29:22;;;;;;;;;;;-0.50;99.90;;;;;;5052397;28;19923;-82
2024/01/05 03:31:48;;;;;;;;;;;-0.50;99.90;;;;;;5070740;28;19916;-82
2024/01/05 03:34:14;;;;;;;;;;;-0.50;99.90;;;;;;5070249;28;19919;-82
2024/01/05 03:36:39;;;;;;;;;;;-0.50;99.90;;;;;;5051675;28;19912;-82
2024/01/05 03:39:08;;;;;;;;;;;-0.60;99.90;;;;;;5049960;28;19909;-82
2024/01/05 03:41:34;;;;;;;;;;;-0.50;99.90;;;;;;5050732;28;19911;-82
2024/01/05 03:44:00;;;;;;;;;;;-0.50;99.90;;;;;;5066720;28;19916;-82
2024/01/05 03:46:25;;;;;;;;;;;-0.50;99.90;;;;;;5069694;28;19944;-82
2024/01/05 03:48:51;;;;;;;;;;;-0.50;99.90;;;;;;5051722;28;20562;-82
2024/01/05 03:51:16;;;;;;;;;;;-0.50;99.90;;;;;;5069107;28;19930;-82
2024/01/05 03:53:41;;;;;;;;;;;-0.50;99.90;;;;;;5069798;28;19947;-82
2024/01/05 03:56:08;;;;;;;;;;;-0.50;99.90;;;;;;5051201;28;19916;-81
2024/01/05 03:58:34;;;;;;;;;;;-0.40;99.90;;;;;;5069766;28;20379;-82
2024/01/05 04:01:03;;;;;;;;;;;-0.40;99.90;;;;;;5070182;28;19912;-82
2024/01/05 04:03:28;;;;;;;;;;;-0.40;99.90;;;;;;5052308;28;19912;-82
2024/01/05 04:05:54;;;;;;;;;;;-0.50;99.90;;;;;;5070876;28;19919;-82
2024/01/05 04:08:19;;;;;;;;;;;-0.40;99.90;;;;;;5050408;28;20304;-82
2024/01/05 04:10:45;;;;;;;;;;;-0.50;99.90;;;;;;5069552;28;19956;-82
2024/01/05 04:13:10;;;;;;;;;;;-0.40;99.90;;;;;;5069714;28;19965;-82
2024/01/05 04:15:36;;;;;;;;;;;-0.40;99.90;;;;;;5069675;28;19912;-82
2024/01/05 04:18:02;;;;;;;;;;;-0.40;99.90;;;;;;5052053;28;19912;-82
2024/01/05 04:20:27;;;;;;;;;;;-0.40;99.90;;;;;;5070457;28;19922;-81
2024/01/05 04:22:53;;;;;;;;;;;-0.30;99.90;;;;;;5069506;28;20369;-82
2024/01/05 04:25:18;;;;;;;;;;;-0.30;99.90;;;;;;5056468;28;19908;-82
2024/01/05 04:27:44;;;;;;;;;;;-0.30;99.90;;;;;;5063219;28;19919;-83
2024/01/05 04:30:09;;;;;;;;;;;-0.30;99.90;;;;;;5051885;28;20011;-83
2024/01/05 04:32:35;;;;;;;;;;;-0.30;99.90;;;;;;5070729;28;20399;-82
2024/01/05 04:35:00;;;;;;;;;;;-0.20;99.90;;;;;;5070291;28;20364;-82
2024/01/05 04:37:26;;;;;;;;;;;-0.20;99.90;;;;;;5070045;28;19954;-82
2024/01/05 04:39:51;;;;;;;;;;;-0.30;99.90;;;;;;5042311;28;19908;-82
2024/01/05 04:42:16;;;;;;;;;;;-0.20;99.90;;;;;;5060311;28;20005;-82
2024/01/05 04:44:42;;;;;;;;;;;-0.20;99.90;;;;;;5051121;28;19955;-82
2024/01/05 04:47:07;;;;;;;;;;;-0.20;99.90;;;;;;5068543;28;19987;-82
2024/01/05 04:49:33;;;;;;;;;;;-0.10;99.90;;;;;;5069740;28;19932;-81
2024/01/05 04:51:59;;;;;;;;;;;-0.10;99.90;;;;;;5069876;28;19927;-82
2024/01/05 04:54:25;;;;;;;;;;;-0.10;99.90;;;;;;5069960;28;20291;-82
2024/01/05 04:56:50;;;;;;;;;;;-0.10;99.90;;;;;;5068986;28;20371;-82
2024/01/05 04:59:16;;;;;;;;;;;-0.10;99.90;;;;;;5069913;28;20268;-83
2024/01/05 05:01:41;;;;;;;;;;;-0.10;99.90;;;;;;5066264;28;20050;-83
2024/01/05 05:04:06;;;;;;;;;;;-0.10;99.90;;;;;;5051133;28;20001;-82
2024/01/05 05:06:32;;;;;;;;;;;-0.10;99.90;;;;;;5069984;28;19912;-83
2024/01/05 05:08:58;;;;;;;;;;;-0.10;99.90;;;;;;5068444;28;19928;-82
2024/01/05 05:11:23;;;;;;;;;;;-0.10;99.90;;;;;;5069789;28;20102;-82
2024/01/05 05:13:49;;;;;;;;;;;-0.10;99.90;;;;;;5069872;28;20296;-83
2024/01/05 05:16:14;;;;;;;;;;;-0.10;99.90;;;;;;5073467;28;20348;-83
2024/01/05 05:18:40;;;;;;;;;;;0.00;99.90;;;;;;5051560;28;20254;-83
2024/01/05 05:21:05;;;;;;;;;;;0.00;99.90;;;;;;5055868;28;19904;-82
2024/01/05 05:23:31;;;;;;;;;;;0.00;99.90;;;;;;5054849;28;19919;-82
2024/01/05 05:25:57;;;;;;;;;;;0.00;99.90;;;;;;5069383;28;19915;-82
2024/01/05 05:28:23;;;;;;;;;;;0.00;99.90;;;;;;5073609;28;19919;-82
2024/01/05 05:30:48;;;;;;;;;;;0.00;99.90;;;;;;5055485;28;19920;-82
2024/01/05 05:33:14;;;;;;;;;;;-0.10;99.90;;;;;;5054520;28;19963;-82
2024/01/05 05:35:39;;;;;;;;;;;0.00;99.90;;;;;;5054008;28;20006;-82
2024/01/05 05:38:06;;;;;;;;;;;-0.10;99.90;;;;;;5055592;28;19912;-82
2024/01/05 05:40:32;;;;;;;;;;;0.00;99.90;;;;;;5073241;28;19958;-82
2024/01/05 05:42:57;;;;;;;;;;;0.00;99.90;;;;;;5072537;28;19919;-82
2024/01/05 05:45:23;;;;;;;;;;;0.00;99.90;;;;;;5073150;28;19912;-82
2024/01/05 05:47:48;;;;;;;;;;;0.00;99.90;;;;;;5073610;28;20014;-82
2024/01/05 05:50:14;;;;;;;;;;;0.00;99.90;;;;;;5049123;28;19999;-82
2024/01/05 05:52:40;;;;;;;;;;;0.00;99.90;;;;;;5060370;28;19955;-82
2024/01/05 05:55:06;;;;;;;;;;;0.00;99.90;;;;;;5073118;28;19908;-82
2024/01/05 05:57:32;;;;;;;;;;;0.00;99.90;;;;;;5054682;28;19959;-82
2024/01/05 05:59:57;;;;;;;;;;;0.00;99.90;;;;;;5050581;28;19970;-82
2024/01/05 06:02:22;;;;;;;;;;;0.00;99.90;;;;;;5064954;28;19948;-82
2024/01/05 06:04:48;;;;;;;;;;;0.00;99.90;;;;;;5054152;28;19915;-82
2024/01/05 06:07:14;;;;;;;;;;;0.00;99.90;;;;;;5071537;28;19916;-83
2024/01/05 06:09:39;;;;;;;;;;;0.00;99.90;;;;;;5071805;28;20353;-81
2024/01/05 06:12:05;;;;;;;;;;;0.00;99.90;;;;;;5071672;28;19965;-82
2024/01/05 06:14:30;;;;;;;;;;;0.00;99.90;;;;;;5071271;28;19965;-82
2024/01/05 06:16:55;;;;;;;;;;;0.00;99.90;;;;;;5072353;28;20349;-82
2024/01/05 06:19:21;;;;;;;;;;;0.00;99.90;;;;;;5071153;28;20300;-82
2024/01/05 06:21:46;;;;;;;;;;;0.00;99.90;;;;;;5070181;28;19912;-82
2024/01/05 06:24:12;;;;;;;;;;;0.00;99.90;;;;;;5072272;28;20348;-82
2024/01/05 06:26:37;;;;;;;;;;;0.00;99.90;;;;;;5053936;28;19923;-82
2024/01/05 06:29:03;;;;;;;;;;;0.00;99.90;;;;;;5072453;28;19912;-82
2024/01/05 06:31:28;;;;;;;;;;;-0.10;99.90;;;;;;5071262;28;19924;-82
2024/01/05 06:33:54;;;;;;;;;;;-0.10;99.90;;;;;;5067791;28;19937;-83
2024/01/05 06:36:20;;;;;;;;;;;-0.10;99.90;;;;;;5053102;28;19909;-82
2024/01/05 06:38:45;;;;;;;;;;;-0.10;99.90;;;;;;5067703;28;19916;-81
2024/01/05 06:41:11;;;;;;;;;;;-0.10;99.90;;;;;;5072307;28;19908;-81
2024/01/05 06:43:36;;;;;;;;;;;-0.10;99.90;;;;;;5071151;28;19909;-81
2024/01/05 06:46:02;;;;;;;;;;;-0.10;99.90;;;;;;5069728;28;19912;-81
2024/01/05 06:48:27;;;;;;;;;;;0.00;99.90;;;;;;5072412;28;19924;-82
2024/01/05 06:50:53;;;;;;;;;;;0.00;99.90;;;;;;5040761;28;20368;-82
2024/01/05 06:53:18;;;;;;;;;;;0.00;99.90;;;;;;5071120;28;19908;-81
2024/01/05 06:55:43;;;;;;;;;;;-0.10;99.90;;;;;;5070042;28;19967;-82
2024/01/05 06:58:09;;;;;;;;;;;0.00;99.90;;;;;;5053999;28;19962;-82
2024/01/05 07:00:37;;;;;;;;;;;0.00;99.90;;;;;;5050685;28;19908;-82
2024/01/05 07:03:04;;;;;;;;;;;0.00;99.90;;;;;;5045078;28;19912;-82
2024/01/05 07:05:29;;;;;;;;;;;-0.10;99.90;;;;;;5051251;28;19912;-81
2024/01/05 07:07:55;;;;;;;;;;;-0.10;99.90;;;;;;5051285;28;19973;-81
2024/01/05 07:10:20;;;;;;;;;;;-0.20;99.90;;;;;;5069263;28;19940;-82
2024/01/05 07:12:46;;;;;;;;;;;-0.30;99.90;;;;;;5063234;28;19915;-81
2024/01/05 07:15:11;;;;;;;;;;;-0.30;99.90;;;;;;5063803;28;19915;-82
2024/01/05 07:17:37;;;;;;;;;;;-0.30;99.90;;;;;;5051801;28;20590;-82
2024/01/05 07:20:02;;;;;;;;;;;-0.30;99.90;;;;;;5051587;28;19952;-82
2024/01/05 07:22:30;;;;;;;;;;;-0.30;99.90;;;;;;5046399;28;19951;-82
2024/01/05 07:24:57;;;;;;;;;;;-0.30;99.90;;;;;;5070316;28;19952;-82
2024/01/05 07:27:32;;;;;;;;;;;-0.30;99.90;;;;;;5070530;28;19912;-82
2024/01/05 07:29:58;;;;;;;;;;;-0.30;99.90;;;;;;5071207;28;19923;-82
2024/01/05 07:32:23;;;;;;;;;;;-0.30;99.90;;;;;;5070025;28;20007;-82
2024/01/05 07:34:55;;;;;;;;;;;-0.30;99.90;;;;;;5052752;28;20006;-82
2024/01/05 07:37:21;;;;;;;;;;;-0.30;99.90;;;;;;5048000;28;19969;-82
2024/01/05 07:39:47;;;;;;;;;;;-0.30;99.90;;;;;;5070474;28;19954;-82
2024/01/05 07:42:15;;;;;;;;;;;-0.30;99.90;;;;;;5051774;28;19912;-81
2024/01/05 07:44:41;;;;;;;;;;;-0.30;99.90;;;;;;5070040;28;19909;-81
2024/01/05 07:47:08;;;;;;;;;;;-0.30;99.90;;;;;;5052627;28;19961;-81
2024/01/05 07:49:34;;;;;;;;;;;-0.30;99.90;;;;;;5067968;28;19913;-81
2024/01/05 07:51:59;;;;;;;;;;;-0.30;99.90;;;;;;5068168;28;19945;-81
2024/01/05 07:54:25;;;;;;;;;;;-0.30;99.90;;;;;;5049669;28;20284;-81
2024/01/05 07:56:51;;;;;;;;;;;-0.20;99.90;;;;;;5070861;28;19908;-80
2024/01/05 07:59:16;;;;;;;;;;;-0.20;99.90;;;;;;5048658;28;19908;-80
2024/01/05 08:01:42;;;;;;;;;;;-0.20;99.90;;;;;;5057116;28;19959;-81
2024/01/05 08:04:07;;;;;;;;;;;-0.30;99.90;;;;;;5062033;28;19951;-80
2024/01/05 08:06:33;;;;;;;;;;;-0.30;99.90;;;;;;5069963;28;19920;-81
2024/01/05 08:08:58;;;;;;;;;;;-0.30;99.90;;;;;;5069503;28;19920;-80
2024/01/05 08:11:24;;;;;;;;;;;-0.20;99.90;;;;;;5070671;28;19924;-81
2024/01/05 08:13:51;;;;;;;;;;;-0.20;99.90;;;;;;5052528;28;19927;-81
2024/01/05 08:16:17;;;;;;;;;;;-0.20;99.90;;;;;;5058847;28;20371;-80
2024/01/05 08:18:43;;;;;;;;;;;-0.30;99.90;;;;;;5065808;28;19955;-80
2024/01/05 08:21:08;;;;;;;;;;;-0.30;99.90;;;;;;5067926;28;20315;-81
2024/01/05 08:23:34;;;;;;;;;;;-0.30;99.90;;;;;;5069775;28;21499;-80
2024/01/05 08:26:20;;;;;;;;;;;-0.30;99.90;;;;;;5050797;28;19912;-81
2024/01/05 08:28:45;;;;;;;;;;;-0.30;99.90;;;;;;5068470;28;19944;-81
2024/01/05 08:31:11;;;;;;;;;;;-0.30;99.90;;;;;;5049654;28;19947;-80
2024/01/05 08:33:36;;;;;;;;;;;-0.20;99.90;;;;;;5070524;28;19908;-81
2024/01/05 08:36:02;;;;;;;;;;;-0.30;99.90;;;;;;5070061;28;19919;-81
2024/01/05 08:38:27;;;;;;;;;;;-0.20;99.90;;;;;;5049815;28;19927;-80
2024/01/05 08:40:53;;;;;;;;;;;-0.30;99.90;;;;;;5063213;28;21246;-80
2024/01/05 08:43:19;;;;;;;;;;;-0.20;99.90;;;;;;5068205;28;20326;-80
2024/01/05 08:45:50;;;;;;;;;;;-0.30;99.90;;;;;;5067855;28;19912;-80
2024/01/05 08:48:42;;;;;;;;;;;-0.20;99.90;;;;;;5050906;28;20313;-79
2024/01/05 08:51:08;;;;;;;;;;;-0.30;99.90;;;;;;5069879;28;19931;-80
2024/01/05 08:53:34;;;;;;;;;;;-0.30;99.90;;;;;;5066038;28;20282;-80
2024/01/05 08:56:02;;;;;;;;;;;-0.30;99.90;;;;;;5040931;28;19912;-80
2024/01/05 08:58:27;;;;;;;;;;;-0.40;99.90;;;;;;5067112;28;19912;-81
2024/01/05 09:00:53;;;;;;;;;;;-0.50;99.90;;;;;;5068722;28;19916;-81
2024/01/05 09:03:19;;;;;;;;;;;-0.50;99.90;;;;;;5068691;28;20390;-80
2024/01/05 09:05:46;;;;;;;;;;;-0.50;99.90;;;;;;5066522;28;19912;-80
2024/01/05 09:08:11;;;;;;;;;;;-0.40;99.90;;;;;;5064103;28;20369;-79
2024/01/05 09:10:38;;;;;;;;;;;-0.50;99.90;;;;;;5062177;28;19916;-79
2024/01/05 09:13:03;;;;;;;;;;;-0.40;99.90;;;;;;5068359;28;19913;-79
2024/01/05 09:15:29;;;;;;;;;;;-0.50;99.90;;;;;;5064174;28;19913;-79
2024/01/05 09:17:54;;;;;;;;;;;-0.50;99.90;;;;;;5062992;28;20470;-79
2024/01/05 09:20:20;;;;;;;;;;;-0.50;99.90;;;;;;5061881;28;19915;-79
2024/01/05 09:25:32;;;;;;;;;;;-0.50;99.90;;;;;;5057257;28;20001;-79
2024/01/05 09:28:01;;;;;;;;;;;-0.50;99.90;;;;;;5049495;28;20387;-79
2024/01/05 09:30:29;;;;;;;;;;;-0.50;99.90;;;;;;5068462;28;20003;-80
2024/01/05 09:32:57;;;;;;;;;;;-0.50;99.90;;;;;;5049662;28;19948;-80
2024/01/05 09:35:32;;;;;;;;;;;-0.50;99.90;;;;;;5068314;28;19948;-80
2024/01/05 09:37:57;;;;;;;;;;;-0.50;99.90;;;;;;5049691;28;20321;-80
2024/01/05 09:40:24;;;;;;;;;;;-0.50;99.90;;;;;;5050978;28;19948;-80
2024/01/05 09:42:50;;;;;;;;;;;-0.40;99.90;;;;;;5068951;28;19928;-81
2024/01/05 09:45:18;;;;;;;;;;;-0.40;99.90;;;;;;5063250;28;19912;-80
2024/01/05 09:47:43;;;;;;;;;;;-0.40;99.90;;;;;;5042384;28;20023;-82
2024/01/05 09:50:11;;;;;;;;;;;-0.40;99.90;;;;;;5046972;28;20020;-81
2024/01/05 09:52:36;;;;;;;;;;;-0.40;99.90;;;;;;5047331;28;19912;-81
2024/01/05 09:55:02;;;;;;;;;;;-0.30;99.90;;;;;;5068459;28;19931;-81
2024/01/05 09:57:37;;;;;;;;;;;-0.30;99.90;;;;;;5070130;28;19995;-81
2024/01/05 10:00:05;;;;;;;;;;;-0.30;99.90;;;;;;5067695;28;20326;-81
2024/01/05 10:02:40;;;;;;;;;;;-0.40;99.90;;;;;;5054353;28;19908;-80
2024/01/05 10:05:06;;;;;;;;;;;-0.40;99.90;;;;;;5050736;28;19912;-81
2024/01/05 10:07:31;;;;;;;;;;;-0.30;99.90;;;;;;5048499;28;19923;-81
2024/01/05 10:09:58;;;;;;;;;;;-0.20;99.90;;;;;;5068999;28;19912;-81
2024/01/05 10:12:24;;;;;;;;;;;-0.30;99.90;;;;;;5054071;28;19916;-82
2024/01/05 10:14:49;;;;;;;;;;;-0.20;99.90;;;;;;5059409;28;20326;-81
2024/01/05 10:17:21;;;;;;;;;;;-0.20;99.90;;;;;;5052854;28;20379;-81
2024/01/05 10:19:46;;;;;;;;;;;-0.30;99.90;;;;;;5059989;28;19917;-81
2024/01/05 10:22:12;;;;;;;;;;;-0.40;99.90;;;;;;5068585;28;19969;-82
2024/01/05 10:24:38;;;;;;;;;;;-0.40;99.90;;;;;;5071040;28;19914;-82
2024/01/05 10:27:05;;;;;;;;;;;-0.40;99.90;;;;;;5053644;28;19912;-82
2024/01/05 10:29:31;;;;;;;;;;;-0.40;99.90;;;;;;5051029;28;19909;-83
2024/01/05 10:32:10;;;;;;;;;;;-0.40;99.90;;;;;;5067351;28;19922;-81
2024/01/05 10:34:35;;;;;;;;;;;-0.40;99.90;;;;;;5071274;28;19915;-81
2024/01/05 10:37:04;;;;;;;;;;;-0.40;99.90;;;;;;5054682;28;19909;-84
2024/01/05 10:39:33;;;;;;;;;;;-0.30;99.90;;;;;;5069980;28;19917;-82
2024/01/05 10:42:22;;;;;;;;;;;-0.20;99.90;;;;;;5069306;28;20011;-81
2024/01/05 10:44:51;;;;;;;;;;;-0.30;99.90;;;;;;5056152;28;19912;-82
2024/01/05 10:47:24;;;;;;;;;;;-0.20;99.90;;;;;;5064725;28;19954;-81
2024/01/05 10:49:50;;;;;;;;;;;-0.30;99.90;;;;;;5071772;28;20149;-81
2024/01/05 10:52:16;;;;;;;;;;;-0.30;99.90;;;;;;5066621;28;19931;-81
2024/01/05 10:54:43;;;;;;;;;;;-0.30;99.90;;;;;;5071690;28;19934;-81
2024/01/05 10:57:09;;;;;;;;;;;-0.30;99.90;;;;;;5070511;28;19908;-81
2024/01/05 10:59:34;;;;;;;;;;;-0.30;99.90;;;;;;5071623;28;20272;-81
2024/01/05 11:02:02;;;;;;;;;;;-0.40;99.90;;;;;;5070431;28;19912;-81
2024/01/05 11:04:28;;;;;;;;;;;-0.40;99.90;;;;;;5066813;28;19916;-81
2024/01/05 11:06:54;;;;;;;;;;;-0.30;99.90;;;;;;5070435;28;20284;-80
2024/01/05 11:09:43;;;;;;;;;;;-0.40;99.90;;;;;;5070260;28;19920;-81
2024/01/05 11:12:14;;;;;;;;;;;-0.40;99.90;;;;;;5049325;28;20441;-80
2024/01/05 11:14:58;;;;;;;;;;;-0.40;99.90;;;;;;5069830;28;20007;-81
2024/01/05 11:17:24;;;;;;;;;;;-0.40;99.90;;;;;;5040562;28;20380;-81
2024/01/05 11:20:12;;;;;;;;;;;-0.40;99.90;;;;;;5047188;28;19919;-80
2024/01/05 11:22:53;;;;;;;;;;;-0.30;99.90;;;;;;5052217;28;19920;-80
2024/01/05 11:25:38;;;;;;;;;;;;;;;;;;;;;
2024/01/05 11:28:06;;;;;;;;;;;-0.30;99.90;;;;;;5068771;28;19916;-80
2024/01/05 11:30:41;;;;;;;;;;;-0.30;99.90;;;;;;5071737;28;19920;-81
2024/01/05 11:33:07;;;;;;;;;;;-0.20;99.90;;;;;;5071269;28;19909;-80
2024/01/05 11:35:35;;;;;;;;;;;-0.10;99.90;;;;;;5063389;28;19912;-81
2024/01/05 11:38:08;;;;;;;;;;;-0.20;99.90;;;;;;5071470;28;20403;-81
2024/01/05 11:40:33;;;;;;;;;;;-0.10;99.90;;;;;;5065453;28;19909;-81
2024/01/05 11:43:19;;;;;;;;;;;-0.20;99.90;;;;;;5051166;28;20693;-80
2024/01/05 11:45:45;;;;;;;;;;;-0.30;99.90;;;;;;5045360;28;19922;-80
2024/01/05 11:48:30;;;;;;;;;;;-0.10;99.90;;;;;;5069781;28;19908;-80
2024/01/05 11:50:57;;;;;;;;;;;-0.10;99.90;;;;;;5070853;28;19916;-80
2024/01/05 11:53:28;;;;;;;;;;;-0.20;99.90;;;;;;5069501;28;19958;-80
2024/01/05 11:56:00;;;;;;;;;;;-0.20;99.90;;;;;;5069795;28;20005;-80
2024/01/05 11:58:28;;;;;;;;;;;-0.10;99.90;;;;;;5060905;28;19908;-80
2024/01/05 12:01:03;;;;;;;;;;;-0.10;99.90;;;;;;5052589;28;20037;-80
2024/01/05 12:03:30;;;;;;;;;;;-0.10;99.90;;;;;;5050958;28;19912;-79
2024/01/05 12:05:56;;;;;;;;;;;-0.20;99.90;;;;;;5070225;28;19915;-80
2024/01/05 12:08:22;;;;;;;;;;;-0.10;99.90;;;;;;5065637;28;19934;-79
2024/01/05 12:10:55;;;;;;;;;;;-0.20;99.90;;;;;;5050944;28;19920;-79
2024/01/05 12:13:26;;;;;;;;;;;-0.10;99.90;;;;;;5062100;28;19912;-80
2024/01/05 12:15:54;;;;;;;;;;;-0.10;99.90;;;;;;5069162;28;20423;-79
2024/01/05 12:18:26;;;;;;;;;;;-0.10;99.90;;;;;;5049367;28;19961;-80
2024/01/05 12:20:59;;;;;;;;;;;-0.20;99.90;;;;;;5070016;28;19908;-80
2024/01/05 12:23:25;;;;;;;;;;;-0.30;99.90;;;;;;5044401;28;19913;-79
2024/01/05 12:25:56;;;;;;;;;;;-0.30;99.90;;;;;;5068210;28;20245;-79
2024/01/05 12:28:22;;;;;;;;;;;-0.20;99.90;;;;;;5069861;28;19915;-79
2024/01/05 12:30:47;;;;;;;;;;;-0.30;99.90;;;;;;5052510;28;19917;-79
2024/01/05 12:33:13;;;;;;;;;;;-0.20;99.90;;;;;;5069193;28;19908;-80
2024/01/05 12:35:38;;;;;;;;;;;-0.30;99.90;;;;;;5070981;28;19912;-79
2024/01/05 12:38:04;;;;;;;;;;;-0.20;99.90;;;;;;5071487;28;19951;-79
2024/01/05 12:40:29;;;;;;;;;;;-0.30;99.90;;;;;;5067026;28;19912;-79
2024/01/05 12:43:05;;;;;;;;;;;;;;;;;;;;;
2024/01/05 12:45:31;;;;;;;;;;;-0.40;99.90;;;;;;5070428;28;19908;-80
2024/01/05 12:47:56;;;;;;;;;;;-0.30;99.90;;;;;;5070327;28;19991;-81
2024/01/05 12:50:25;;;;;;;;;;;-0.40;99.90;;;;;;5070797;28;20018;-81
2024/01/05 12:53:11;;;;;;;;;;;-0.40;99.90;;;;;;5069773;28;19994;-80
2024/01/05 12:55:37;;;;;;;;;;;-0.40;99.90;;;;;;5052498;28;19909;-79
2024/01/05 12:58:03;;;;;;;;;;;-0.40;99.90;;;;;;5067410;28;19915;-81
2024/01/05 13:00:29;;;;;;;;;;;-0.40;99.90;;;;;;5044292;28;19916;-80
2024/01/05 13:03:03;;;;;;;;;;;-0.30;99.90;;;;;;5049431;28;19919;-80
2024/01/05 13:05:38;;;;;;;;;;;-0.40;99.90;;;;;;5051680;28;19916;-81
2024/01/05 13:08:03;;;;;;;;;;;-0.40;99.90;;;;;;5044710;28;19954;-80
2024/01/05 13:10:33;;;;;;;;;;;-0.40;99.90;;;;;;5069020;28;20368;-80
2024/01/05 13:12:58;;;;;;;;;;;-0.40;99.90;;;;;;5052245;28;19920;-82
2024/01/05 13:15:24;;;;;;;;;;;-0.40;99.90;;;;;;5051009;28;20387;-80
2024/01/05 13:17:52;;;;;;;;;;;-0.30;99.90;;;;;;5066283;28;20359;-79
2024/01/05 13:20:38;;;;;;;;;;;-0.40;99.90;;;;;;5051955;28;19916;-80
2024/01/05 13:23:04;;;;;;;;;;;-0.30;99.90;;;;;;5052850;28;19959;-80
2024/01/05 13:25:29;;;;;;;;;;;-0.30;99.90;;;;;;5066214;28;19919;-81
2024/01/05 13:27:55;;;;;;;;;;;-0.30;99.90;;;;;;5068113;28;20357;-81
2024/01/05 13:30:29;;;;;;;;;;;-0.30;99.90;;;;;;5069294;28;19920;-81
2024/01/05 13:32:55;;;;;;;;;;;-0.30;99.90;;;;;;5035666;28;19916;-81
2024/01/05 13:35:21;;;;;;;;;;;-0.30;99.90;;;;;;5054026;28;19915;-81
2024/01/05 13:37:48;;;;;;;;;;;-0.30;99.90;;;;;;5055720;28;20241;-80
2024/01/05 13:40:14;;;;;;;;;;;-0.20;99.90;;;;;;5073869;28;19970;-81
2024/01/05 13:42:39;;;;;;;;;;;-0.30;99.90;;;;;;5072724;28;19956;-81
2024/01/05 13:45:06;;;;;;;;;;;-0.20;99.90;;;;;;5055898;28;19958;-81
2024/01/05 13:47:34;;;;;;;;;;;-0.30;99.90;;;;;;5056464;28;19915;-81
2024/01/05 13:50:00;;;;;;;;;;;-0.30;99.90;;;;;;5073408;28;19912;-81
2024/01/05 13:52:26;;;;;;;;;;;-0.20;99.90;;;;;;5070216;28;19919;-79
2024/01/05 13:54:51;;;;;;;;;;;-0.20;99.90;;;;;;5070500;28;20284;-79
2024/01/05 13:57:21;;;;;;;;;;;-0.20;99.90;;;;;;5068888;28;19908;-80
2024/01/05 13:59:47;;;;;;;;;;;-0.20;99.90;;;;;;5067625;28;19909;-80
2024/01/05 14:02:12;;;;;;;;;;;-0.10;99.90;;;;;;5073669;28;19943;-80
2024/01/05 14:04:38;;;;;;;;;;;-0.10;99.90;;;;;;5072430;28;19951;-80
2024/01/05 14:07:03;;;;;;;;;;;-0.10;99.90;;;;;;5073464;28;19912;-80
2024/01/05 14:09:29;;;;;;;;;;;-0.10;99.90;;;;;;5067714;28;19917;-80
2024/01/05 14:11:54;;;;;;;;;;;-0.10;99.90;;;;;;5068183;28;20037;-81
2024/01/05 14:14:20;;;;;;;;;;;-0.10;99.90;;;;;;5071013;28;20423;-80
2024/01/05 14:16:45;;;;;;;;;;;-0.10;99.90;;;;;;5068438;28;20404;-81
2024/01/05 14:19:11;;;;;;;;;;;0.00;99.90;;;;;;5072781;28;19908;-81
2024/01/05 14:21:36;;;;;;;;;;;0.00;99.90;;;;;;5071145;28;19916;-81